Flight Track Log - Related Links

Times and Time Zones

All times are in EST time to prevent confusion due to time zone crossing. See the UAL3746 flight status page for this flight to view local times or setup timezone preferences in your user account.

Time Position Orientation Groundspeed Altitude Reporting Facility
EST Latitude Longitude Course Direction KTS MPH feet Rate Location/Type
Thu 05:18:28 PM 43.0033 -71.3928 18° North 196 226 3,500  Level Boston Center
Thu 05:19:29 PM 43.0469 -71.4500 316° Northwest 218 251 5,500 2,066 Climbing Boston Center
Thu 05:20:00 PM 42.9396 -72.0074 274° West  Level Estimated
Thu 05:20:30 PM 43.0814 -71.5367 299° West 260 299 7,700  Level Boston Center
Thu 05:21:00 PM 42.9408 -72.1503 270° West  Level Estimated
Thu 05:21:31 PM 43.0869 -71.6358 274° West 263 303 9,900  Level Boston Center
Thu 05:22:00 PM 42.9419 -72.2932 277° West  Level Estimated
Thu 05:22:31 PM 43.0914 -71.7331 274° West 258 297 12,400  Level Boston Center
Thu 05:23:32 PM 43.0947 -71.8361 273° West 255 293 14,200 2,066 Climbing Boston Center
Thu 05:24:33 PM 43.0981 -71.9364 273° West 263 303 16,600 1,935 Climbing Boston Center
Thu 05:25:36 PM 43.1011 -72.0394 272° West 271 312 18,200 1,065 Climbing Boston Center
Thu 05:26:37 PM 43.1056 -72.1639 273° West 308 354 18,800 836 Climbing Boston Center
Thu 05:27:38 PM 43.1106 -72.2969 273° West 345 397 19,900 1,268 Climbing Boston Center
Thu 05:28:40 PM 43.1156 -72.4317 273° West 353 406 21,400 1,525 Climbing Boston Center
Thu 05:29:40 PM 43.1186 -72.5706 272° West 362 417 23,000 1,488 Climbing Boston Center
Thu 05:30:41 PM 43.1214 -72.6978 272° West 366 421 24,400 1,131 Climbing Boston Center
Thu 05:31:42 PM 43.1250 -72.8381 272° West 369 425 25,300 942 Climbing Boston Center
Thu 05:32:42 PM 43.1297 -73.0108 272° West 380 437 26,300 823 Climbing Boston Center
Thu 05:33:46 PM 43.1328 -73.1378 272° West 386 444 27,000 823 Climbing Boston Center
Thu 05:34:46 PM 43.1361 -73.2858 272° West 391 450 28,000 496 Climbing Boston Center
Thu 05:35:47 PM 43.1389 -73.4611 271° West 400 460 28,000 738 Level Boston Center
Thu 05:36:48 PM 43.1428 -73.6206 272° West 413 475 29,500 1,536 Climbing Boston Center
Thu 05:37:52 PM 43.1456 -73.7753 271° West 400 460 31,200 1,500 Climbing Boston Center
Thu 05:38:52 PM 43.1481 -73.9147 271° West 377 434 32,600 1,339 Climbing Boston Center
Thu 05:39:53 PM 43.1503 -74.0506 271° West 361 415 33,900 694 Climbing Boston Center
Thu 05:40:53 PM 43.1522 -74.1847 271° West 355 409 34,000 50 Climbing Boston Center
Thu 05:41:54 PM 43.1525 -74.3267 270° West 366 421 34,000  Level Boston Center
Thu 05:42:57 PM 43.1539 -74.4742 271° West 382 440 34,000  Level Boston Center
Thu 05:43:58 PM 43.1561 -74.6247 271° West 393 452 34,000  Level Boston Center
Thu 05:44:58 PM 43.1578 -74.8067 271° West 398 458 34,000  Level Boston Center
Thu 05:45:59 PM 43.1592 -74.9569 271° West 394 453 34,000  Level Boston Center
Thu 05:47:03 PM 43.1606 -75.1056 271° West 389 448 34,000  Level Boston Center
Thu 05:48:03 PM 43.1614 -75.2578 270° West 394 453 34,000  Level Boston Center
Thu 05:49:04 PM 43.1611 -75.4108 270° West 395 455 34,000  Level Boston Center
Thu 05:50:05 PM 43.1619 -75.5633 270° West 396 456 34,000  Level Boston Center
Thu 05:51:05 PM 43.1614 -75.7150 270° West 396 456 34,000  Level Boston Center
Thu 05:52:09 PM 43.1617 -75.8672 270° West 398 458 34,000  Level Boston Center
Thu 05:53:11 PM 43.1611 -76.0175 270° West 396 456 34,000  Level Boston Center
Thu 05:54:11 PM 43.1606 -76.1708 270° West 404 465 34,000  Level Boston Center
Thu 05:55:13 PM 43.1603 -76.3258 270° West 408 470 34,000  Level Boston Center
Thu 05:56:06 PM 43.1592 -76.4806 269° West 410 472 34,000  Level Cleveland Center
Thu 05:57:08 PM 43.1589 -76.6364 270° West 409 471 34,000  Level Cleveland Center
Thu 05:58:10 PM 43.1578 -76.7881 269° West 410 472 34,000  Level Cleveland Center
Thu 05:59:13 PM 43.1572 -76.9722 270° West 406 467 34,000  Level Cleveland Center
Thu 06:00:15 PM 43.1558 -77.1253 269° West 405 466 34,000  Level Cleveland Center
Thu 06:01:17 PM 43.1547 -77.2786 269° West 406 467 34,000  Level Cleveland Center
Thu 06:02:19 PM 43.1533 -77.4328 269° West 408 470 34,000  Level Cleveland Center
Thu 06:03:21 PM 43.1522 -77.5867 269° West 409 471 34,000  Level Cleveland Center
Thu 06:04:23 PM 43.1494 -77.7719 269° West 409 471 34,000  Level Cleveland Center
Thu 06:05:25 PM 43.1481 -77.9264 269° West 410 472 34,000  Level Cleveland Center
Thu 06:06:27 PM 43.1456 -78.0814 269° West 411 473 34,000  Level Cleveland Center
Thu 06:07:29 PM 43.1433 -78.2383 269° West 414 476 34,000  Level Cleveland Center
Thu 06:08:31 PM 43.1408 -78.3944 269° West 413 475 34,000  Level Cleveland Center
Thu 06:09:34 PM 43.1350 -78.5831 268° West 418 481 34,000  Level Cleveland Center
Thu 06:10:36 PM 43.1308 -78.7378 268° West 410 472 34,000  Level Cleveland Center
Thu 06:11:38 PM 43.1256 -78.8928 267° West 408 470 34,000  Level Cleveland Center
Thu 06:12:30 PM 43.1167 -79.0167 264° West 400 460 34,000  Level Toronto Center
Thu 06:13:30 PM 43.1167 -79.1500 270° West 400 460 34,000  Level Toronto Center
Thu 06:14:30 PM 43.1000 -79.3167 262° West 410 472 34,000  Level Toronto Center
Thu 06:15:30 PM 43.1000 -79.4667 270° West 410 472 34,000  Level Toronto Center
Thu 06:16:30 PM 43.1000 -79.6333 270° West 410 472 34,000  Level Toronto Center
Thu 06:17:30 PM 43.0833 -79.8000 262° West 410 472 34,000  Level Toronto Center
Thu 06:18:30 PM 43.0833 -79.9500 270° West 410 472 34,000  Level Toronto Center
Thu 06:19:30 PM 43.0833 -80.0833 270° West 410 472 34,000  Level Toronto Center
Thu 06:20:30 PM 43.0667 -80.2500 262° West 410 472 34,000  Level Toronto Center
Thu 06:21:30 PM 43.0667 -80.4167 270° West 420 483 34,000  Level Toronto Center
Thu 06:22:30 PM 43.0500 -80.5833 262° West 420 483 34,000  Level Toronto Center
Thu 06:23:30 PM 43.0500 -80.7333 270° West 420 483 34,000  Level Toronto Center
Thu 06:24:30 PM 43.0333 -80.8833 261° West 420 483 34,000  Level Toronto Center
Thu 06:25:30 PM 43.0167 -81.0500 262° West 420 483 34,000  Level Toronto Center
Thu 06:26:30 PM 43.0167 -81.2000 270° West 420 483 34,000  Level Toronto Center
Thu 06:27:30 PM 43.0167 -81.3833 270° West 430 495 34,000  Level Toronto Center
Thu 06:28:30 PM 43.0167 -81.5500 270° West 430 495 34,000  Level Toronto Center
Thu 06:29:30 PM 43.0167 -81.7000 270° West 430 495 34,000  Level Toronto Center
Thu 06:30:30 PM 43.0167 -81.8667 270° West 430 495 34,000  Level Toronto Center
Thu 06:31:30 PM 43.0000 -82.0333 262° West 430 495 34,000  Level Toronto Center
Thu 06:32:30 PM 43.0000 -82.1833 270° West 430 495 34,000  Level Toronto Center
Thu 06:33:30 PM 43.0000 -82.3667 270° West 440 506 34,000  Level Toronto Center
Thu 06:34:30 PM 43.0000 -82.5333 270° West 440 506 34,000 -350 Level Toronto Center
Thu 06:35:30 PM 42.9833 -82.6833 261° West 440 506 33,300 -1,000 Descending Toronto Center
Thu 06:36:30 PM 42.9833 -82.8667 270° West 440 506 32,000 -650 Descending Toronto Center
Thu 06:37:30 PM 42.9833 -83.0333 270° West 430 495 32,000  Level Toronto Center
Thu 06:38:30 PM 42.9833 -83.1833 270° West 430 495 32,000  Level Toronto Center
Thu 06:39:30 PM 42.9667 -83.3500 262° West 440 506 32,000  Level Toronto Center
Thu 06:40:30 PM 42.9667 -83.5333 270° West 440 506 32,000  Level Toronto Center
Thu 06:41:01 PM 42.9714 -83.6203 274° West 439 505 32,000  Level Cleveland Center
Thu 06:42:03 PM 42.9628 -83.7858 266° West 440 506 32,000  Level Cleveland Center
Thu 06:43:06 PM 42.9464 -83.9472 262° West 435 501 32,000  Level Cleveland Center
Thu 06:44:08 PM 42.9303 -84.1072 262° West 431 496 32,000  Level Cleveland Center
Thu 06:45:10 PM 42.9144 -84.2689 262° West 433 498 32,000  Level Cleveland Center
Thu 06:46:12 PM 42.8975 -84.4375 262° West 434 499 32,000  Level Cleveland Center
Thu 06:46:48 PM 42.8897 -84.5336 264° West 430 495 32,000  Level Chicago Center
Thu 06:47:50 PM 42.8697 -84.7283 262° West 433 498 32,000  Level Chicago Center
Thu 06:48:52 PM 42.8519 -84.8911 262° West 434 499 32,000  Level Chicago Center
Thu 06:49:54 PM 42.8342 -85.0575 262° West 442 509 32,000 -145 Level Chicago Center
Thu 06:50:56 PM 42.8172 -85.2208 262° West 438 504 31,700 -968 Descending Chicago Center
Thu 06:51:58 PM 42.7994 -85.3806 261° West 430 495 30,000 -1,645 Descending Chicago Center
Thu 06:53:00 PM 42.7800 -85.5386 261° West 424 488 28,300 -1,839 Descending Chicago Center
Thu 06:54:02 PM 42.7525 -85.6881 256° West 409 471 26,200 -2,177 Descending Chicago Center
Thu 06:55:04 PM 42.7222 -85.8575 256° West 387 445 23,800 -2,129 Descending Chicago Center
Thu 06:56:06 PM 42.6978 -85.9944 256° West 376 433 21,800 -1,790 Descending Chicago Center
Thu 06:57:08 PM 42.6728 -86.1292 256° West 369 425 20,100 -871 Descending Chicago Center
Thu 06:58:10 PM 42.6475 -86.2617 256° West 364 419 20,000 -576 Descending Chicago Center
Thu 06:59:13 PM 42.6222 -86.3917 255° West 356 410 18,900 -1,488 Descending Chicago Center
Thu 07:00:15 PM 42.5989 -86.5192 256° West 349 402 16,900 -1,790 Descending Chicago Center
Thu 07:01:17 PM 42.5739 -86.6481 255° West 353 406 15,200 -1,790 Descending Chicago Center
Thu 07:02:19 PM 42.5411 -86.7947 253° West 338 389 13,200 -1,694 Descending Chicago Center
Thu 07:03:21 PM 42.5094 -86.9078 249° West 324 373 11,700 -1,210 Descending Chicago Center
Thu 07:04:23 PM 42.4833 -87.0053 250° West 280 322 10,700 -1,016 Descending Chicago Center
Thu 07:05:25 PM 42.4575 -87.0983 249° West 265 305 9,600 -823 Descending Chicago Center
Thu 07:06:27 PM 42.4325 -87.1900 250° West 262 302 9,000 -629 Descending Chicago Center
Thu 07:07:29 PM 42.3933 -87.2689 236° Southwest 276 318 8,300 -968 Descending Chicago Center
Thu 07:08:31 PM 42.3147 -87.3133 203° Southwest 264 304 7,000 -1,161 Descending Chicago Center
Thu 07:09:33 PM 42.2433 -87.3358 193° South 263 303 5,900 -968 Descending Chicago Center
Thu 07:10:35 PM 42.1753 -87.3578 193° South 255 293 5,000 -919 Descending Chicago Center
Thu 07:11:37 PM 42.1050 -87.3764 191° South 253 291 4,000 -265 Descending Chicago Center
Thu 07:13:59 PM 42.0000 -87.5000 221° Southwest 218 251 4,100 31 Climbing Chicago TRACON
Thu 07:14:53 PM 42.0000 -87.5667 270° West 221 254 4,100 -65 Level Chicago TRACON
Thu 07:15:32 PM 42.0014 -87.6164 272° West 251 289 4,000 -119 Descending Chicago Center
Thu 07:16:34 PM 42.0036 -87.6961 272° West 215 247 3,900 -677 Descending Chicago Center
Thu 07:17:36 PM 42.0039 -87.7764 270° West 198 228 2,600 -968 Descending Chicago Center
Thu 07:18:38 PM 42.0036 -87.8278 270° West 171 197 1,900 -532 Descending Chicago Center
Thu 07:19:40 PM 42.0017 -87.8608 265° West 144 166 1,500 -387 Descending Chicago Center
Thu 07:21:00 PM 41.9667 -87.9000 217° Southwest  Level FlightAware Approximate
Thu 07:28:00 PM 41.9793 -87.9074 217° Southwest  Level Estimated

Login

Don't have an account? Register now (free) for customized features, flight alerts, and more!